N12KBM KCRQ-KSAN
Flight info
| Callsign | N12KBM |
|---|---|
| Flight time | 0h 14m |
| Altitude | VFR |
| Route | VFR |
| Aircraft | PA28/L-VGD/C |
Departure
| Time | 2026-05-03 22:25 |
|---|---|
| Airport | McClellan-Palomar Airport (KCRQ) |
Arrival
| Time | 2026-05-03 22:39 |
|---|---|
| Airport | San Diego International Airport (KSAN) |
| Time | Latitude | Longitude | Altitude | Speed | Heading |
|---|---|---|---|---|---|
| 2026-05-03 22:22 | 33.12748 | -117.27645 | 322 ft | 0 kts | 76° |
| 2026-05-03 22:23 | 33.12743 | -117.27661 | 322 ft | 9 kts | 302° |
| 2026-05-03 22:23 | 33.12794 | -117.27667 | 319 ft | 10 kts | 38° |
| 2026-05-03 22:23 | 33.12815 | -117.27567 | 318 ft | 13 kts | 80° |
| 2026-05-03 22:23 | 33.12830 | -117.27466 | 319 ft | 13 kts | 77° |
| 2026-05-03 22:24 | 33.12874 | -117.27441 | 319 ft | 17 kts | 338° |
| 2026-05-03 22:24 | 33.12871 | -117.27663 | 316 ft | 56 kts | 261° |
| 2026-05-03 22:24 | 33.12787 | -117.28211 | 521 ft | 72 kts | 242° |
| 2026-05-03 22:24 | 33.12352 | -117.28337 | 761 ft | 82 kts | 157° |
| 2026-05-03 22:25 | 33.11814 | -117.28017 | 1036 ft | 89 kts | 141° |
| 2026-05-03 22:25 | 33.11331 | -117.27574 | 1361 ft | 90 kts | 132° |
| 2026-05-03 22:25 | 33.10870 | -117.27052 | 1669 ft | 94 kts | 126° |
| 2026-05-03 22:25 | 33.10515 | -117.26375 | 1977 ft | 96 kts | 110° |
| 2026-05-03 22:26 | 33.10311 | -117.25590 | 2248 ft | 100 kts | 92° |
| 2026-05-03 22:26 | 33.10319 | -117.24704 | 2360 ft | 116 kts | 94° |
| 2026-05-03 22:26 | 33.10026 | -117.23828 | 2662 ft | 112 kts | 109° |
| 2026-05-03 22:26 | 33.09578 | -117.23062 | 2874 ft | 108 kts | 136° |
| 2026-05-03 22:27 | 33.08982 | -117.22546 | 3222 ft | 101 kts | 154° |
| 2026-05-03 22:27 | 33.08319 | -117.22171 | 3470 ft | 109 kts | 153° |
| 2026-05-03 22:27 | 33.07611 | -117.21803 | 3705 ft | 114 kts | 157° |
| 2026-05-03 22:27 | 33.06794 | -117.21412 | 3687 ft | 134 kts | 157° |
| 2026-05-03 22:28 | 33.05894 | -117.20984 | 3532 ft | 152 kts | 161° |
| 2026-05-03 22:28 | 33.04895 | -117.20487 | 3514 ft | 146 kts | 152° |
| 2026-05-03 22:28 | 33.04082 | -117.19828 | 3619 ft | 146 kts | 146° |
| 2026-05-03 22:28 | 33.03231 | -117.19192 | 3752 ft | 138 kts | 148° |
| 2026-05-03 22:29 | 33.02402 | -117.18559 | 3454 ft | 162 kts | 148° |
| 2026-05-03 22:29 | 33.01398 | -117.17861 | 3240 ft | 163 kts | 151° |
| 2026-05-03 22:29 | 33.00414 | -117.17226 | 3167 ft | 159 kts | 152° |
| 2026-05-03 22:29 | 32.99441 | -117.16555 | 2926 ft | 166 kts | 150° |
| 2026-05-03 22:30 | 32.98385 | -117.16020 | 2670 ft | 169 kts | 162° |
| 2026-05-03 22:30 | 32.97240 | -117.15584 | 2320 ft | 171 kts | 161° |
| 2026-05-03 22:30 | 32.96170 | -117.15028 | 2192 ft | 164 kts | 155° |
| 2026-05-03 22:30 | 32.95180 | -117.14483 | 2228 ft | 158 kts | 157° |
| 2026-05-03 22:31 | 32.94163 | -117.13962 | 2238 ft | 151 kts | 158° |
| 2026-05-03 22:31 | 32.93245 | -117.13475 | 2456 ft | 140 kts | 158° |
| 2026-05-03 22:31 | 32.92334 | -117.13057 | 2580 ft | 140 kts | 162° |
| 2026-05-03 22:31 | 32.91399 | -117.12676 | 2653 ft | 143 kts | 159° |
| 2026-05-03 22:32 | 32.90457 | -117.12228 | 2694 ft | 146 kts | 159° |
| 2026-05-03 22:32 | 32.89498 | -117.11790 | 2658 ft | 153 kts | 159° |
| 2026-05-03 22:32 | 32.88462 | -117.11351 | 2491 ft | 160 kts | 162° |
| 2026-05-03 22:32 | 32.87404 | -117.10937 | 2406 ft | 159 kts | 163° |
| 2026-05-03 22:33 | 32.86358 | -117.10548 | 2391 ft | 156 kts | 165° |
| 2026-05-03 22:33 | 32.85342 | -117.10251 | 2543 ft | 145 kts | 169° |
| 2026-05-03 22:33 | 32.84375 | -117.10071 | 2718 ft | 140 kts | 173° |
| 2026-05-03 22:33 | 32.83389 | -117.09983 | 2813 ft | 140 kts | 179° |
| 2026-05-03 22:34 | 32.82458 | -117.09976 | 3077 ft | 131 kts | 181° |
| 2026-05-03 22:34 | 32.81524 | -117.09998 | 3196 ft | 137 kts | 181° |
| 2026-05-03 22:34 | 32.80569 | -117.09985 | 3245 ft | 141 kts | 175° |
| 2026-05-03 22:34 | 32.79619 | -117.09887 | 3448 ft | 134 kts | 175° |
| 2026-05-03 22:35 | 32.78668 | -117.09814 | 3503 ft | 141 kts | 179° |
| 2026-05-03 22:35 | 32.77666 | -117.09791 | 3452 ft | 151 kts | 180° |
| 2026-05-03 22:35 | 32.76565 | -117.09803 | 3213 ft | 161 kts | 182° |
| 2026-05-03 22:35 | 32.75461 | -117.09882 | 3164 ft | 157 kts | 186° |
| 2026-05-03 22:36 | 32.74385 | -117.10078 | 3113 ft | 157 kts | 189° |
| 2026-05-03 22:36 | 32.73292 | -117.10342 | 2815 ft | 157 kts | 190° |
| 2026-05-03 22:36 | 32.72312 | -117.10698 | 2268 ft | 143 kts | 201° |
| 2026-05-03 22:36 | 32.71539 | -117.11308 | 1803 ft | 129 kts | 233° |
| 2026-05-03 22:37 | 32.71503 | -117.12241 | 1571 ft | 105 kts | 292° |
| 2026-05-03 22:37 | 32.71793 | -117.12949 | 1396 ft | 95 kts | 294° |
| 2026-05-03 22:37 | 32.72082 | -117.13674 | 1189 ft | 99 kts | 291° |
| 2026-05-03 22:37 | 32.72286 | -117.14459 | 1050 ft | 97 kts | 276° |
| 2026-05-03 22:38 | 32.72460 | -117.15202 | 899 ft | 91 kts | 282° |
| 2026-05-03 22:38 | 32.72616 | -117.15915 | 666 ft | 85 kts | 273° |
| 2026-05-03 22:38 | 32.72775 | -117.16582 | 404 ft | 83 kts | 281° |
| 2026-05-03 22:38 | 32.72930 | -117.17211 | 216 ft | 79 kts | 282° |
| 2026-05-03 22:39 | 32.73083 | -117.17844 | 106 ft | 77 kts | 282° |
| 2026-05-03 22:39 | 32.73228 | -117.18445 | 28 ft | 75 kts | 282° |
| 2026-05-03 22:39 | 32.73333 | -117.18832 | 19 ft | 17 kts | 357° |
| 2026-05-03 22:39 | 32.73404 | -117.18803 | 17 ft | 0 kts | 27° |
| 2026-05-03 22:40 | 32.73421 | -117.18763 | 17 ft | 12 kts | 103° |
| 2026-05-03 22:40 | 32.73398 | -117.18666 | 18 ft | 11 kts | 104° |
| 2026-05-03 22:40 | 32.73384 | -117.18595 | 19 ft | 5 kts | 110° |
| 2026-05-03 22:41 | 32.73367 | -117.18552 | 21 ft | 16 kts | 116° |
| 2026-05-03 22:41 | 32.73331 | -117.18406 | 21 ft | 25 kts | 101° |
| 2026-05-03 22:41 | 32.73283 | -117.18201 | 19 ft | 25 kts | 105° |
| 2026-05-03 22:41 | 32.73260 | -117.17995 | 20 ft | 24 kts | 62° |
| 2026-05-03 22:42 | 32.73368 | -117.17948 | 23 ft | 10 kts | 37° |
| 2026-05-03 22:42 | 32.73401 | -117.17975 | 23 ft | 11 kts | 284° |
| 2026-05-03 22:42 | 32.73403 | -117.17981 | 23 ft | 0 kts | 283° |